Time;durP1;ratioP1;P1;durP2;ratioP2;P2;SDS_P1;SDS_P2;PMS_P1;PMS_P2;Temp;Humidity;BMP_temperature;BMP_pressure;BME280_temperature;BME280_humidity;BME280_pressure;Samples;Min_cycle;Max_cycle;Signal;HPM_P1;HPM_P2
2023/01/13 00:01:26;;;;;;;;;89.50;71.50;;;;;12.41;50.62;99865.63;5050333;28;9882;-79
2023/01/13 00:03:55;;;;;;;;;80.00;64.67;;;;;12.42;50.32;99875.19;5051101;28;9631;-78
2023/01/13 00:06:25;;;;;;;;;81.67;65.33;;;;;12.43;50.73;99872.59;5051227;28;9303;-77
2023/01/13 00:08:56;;;;;;;;;81.67;65.00;;;;;12.50;50.92;99872.59;5051658;28;9077;-77
2023/01/13 00:11:26;;;;;;;;;86.33;68.33;;;;;12.50;50.12;99872.59;5045992;28;10182;-78
2023/01/13 00:13:55;;;;;;;;;87.67;66.33;;;;;12.55;50.71;99876.03;5051286;28;10030;-80
2023/01/13 00:16:24;;;;;;;;;85.00;67.33;;;;;12.56;50.06;99862.97;5067738;28;9351;-79
2023/01/13 00:18:53;;;;;;;;;91.25;75.50;;;;;12.59;49.90;99865.56;5032943;28;9307;-77
2023/01/13 00:21:23;;;;;;;;;88.25;70.50;;;;;12.60;50.17;99875.16;5067389;28;9612;-79
2023/01/13 00:23:53;;;;;;;;;90.75;74.25;;;;;12.59;49.71;99860.34;5067494;28;10619;-78
2023/01/13 00:26:25;;;;;;;;;89.50;75.00;;;;;12.61;50.15;99858.59;5100217;27;9710;-78
2023/01/13 00:28:57;;;;;;;;;89.00;72.75;;;;;12.55;49.61;99866.47;5096195;27;9644;-80
2023/01/13 00:31:28;;;;;;;;;87.33;68.00;;;;;12.50;49.78;99868.22;5112939;27;9418;-80
2023/01/13 00:33:58;;;;;;;;;81.33;64.67;;;;;12.48;50.14;99867.34;5106168;27;9391;-80
2023/01/13 00:36:29;;;;;;;;;85.33;67.67;;;;;12.38;50.78;99870.84;5129944;27;9380;-79
2023/01/13 00:38:59;;;;;;;;;89.00;67.67;;;;;12.43;49.92;99874.34;5131181;27;9242;-78
2023/01/13 00:43:21;;;;;;;;;86.00;68.00;;;;;12.48;50.09;99872.59;5118866;27;9473;-77
2023/01/13 00:44:17;;;;;;;;;86.67;66.33;;;;;12.51;50.74;99876.94;5142200;27;9405;-77
2023/01/13 00:46:45;;;;;;;;;80.33;63.33;;;;;12.38;48.98;99876.97;5107794;27;9226;-78
2023/01/13 00:49:14;;;;;;;;;79.00;63.33;;;;;12.29;49.31;99888.31;5113808;27;9172;-77
2023/01/13 00:51:43;;;;;;;;;86.50;68.75;;;;;12.38;50.18;99892.69;5082133;27;10039;-78
2023/01/13 00:54:12;;;;;;;;;82.67;66.00;;;;;12.42;50.06;99897.00;5150121;27;9388;-76
2023/01/13 00:56:42;;;;;;;;;87.33;68.67;;;;;12.42;49.77;99889.16;5132799;27;9393;-79
2023/01/13 00:59:12;;;;;;;;;84.00;65.50;;;;;12.44;50.61;99887.41;5145120;27;9453;-78
2023/01/13 01:01:41;;;;;;;;;80.00;63.50;;;;;12.52;50.89;99881.31;5112401;27;9564;-77
2023/01/13 01:04:10;;;;;;;;;83.00;66.00;;;;;12.58;50.25;99889.13;5078323;27;9541;-79
2023/01/13 01:06:39;;;;;;;;;87.00;72.75;;;;;12.61;49.77;99886.50;5112430;27;9711;-77
2023/01/13 01:09:12;;;;;;;;;86.50;66.25;;;;;12.62;50.24;99880.38;5135915;27;9758;-77
2023/01/13 01:11:43;;;;;;;;;91.00;79.00;;;;;12.67;49.55;99883.88;5151090;27;9770;-77
2023/01/13 01:14:14;;;;;;;;;92.00;77.00;;;;;12.66;50.10;99879.50;5132591;27;9956;-78
2023/01/13 01:16:42;;;;;;;;;94.25;81.25;;;;;12.71;50.09;99876.88;5086197;28;10149;-78
2023/01/13 01:19:11;;;;;;;;;94.25;77.75;;;;;12.70;49.79;99881.22;5086393;28;10112;-79
2023/01/13 01:21:40;;;;;;;;;88.75;71.75;;;;;12.72;49.47;99876.88;5037577;28;9732;-76
2023/01/13 01:24:10;;;;;;;;;85.50;66.00;;;;;12.75;49.38;99873.38;5020469;28;10680;-80
2023/01/13 01:26:40;;;;;;;;;90.00;75.00;;;;;12.78;49.98;99876.84;5060954;28;9787;-77
2023/01/13 01:29:14;;;;;;;;;87.00;69.50;;;;;12.77;49.75;99872.47;5013072;28;9588;-77
2023/01/13 01:31:43;;;;;;;;;88.00;71.25;;;;;12.72;49.57;99871.66;5046302;28;9643;-76
2023/01/13 01:34:12;;;;;;;;;89.50;75.25;;;;;12.74;50.12;99871.59;5037397;28;9630;-79
2023/01/13 01:36:41;;;;;;;;;93.00;80.25;;;;;12.73;49.39;99875.97;5016730;28;9783;-76
2023/01/13 01:39:10;;;;;;;;;95.25;77.50;;;;;12.74;49.77;99869.00;5016643;28;9871;-75
2023/01/13 01:43:57;;;;;;;;;88.50;70.00;;;;;12.74;51.22;99872.50;5032909;28;10497;-79
2023/01/13 01:44:52;;;;;;;;;93.00;77.25;;;;;12.95;50.31;99879.38;5035876;28;10563;-78
2023/01/13 01:47:22;;;;;;;;;88.00;67.25;;;;;12.77;50.32;99877.69;5040273;28;9724;-78
2023/01/13 01:49:51;;;;;;;;;84.75;68.00;;;;;12.78;50.22;99875.94;5106616;27;9526;-77
2023/01/13 01:52:25;;;;;;;;;90.00;74.75;;;;;12.78;50.53;99869.00;5128351;27;9818;-78
2023/01/13 01:54:59;;;;;;;;;86.75;69.25;;;;;12.79;50.02;99873.31;5130701;27;9878;-76
2023/01/13 01:57:32;;;;;;;;;93.00;75.75;;;;;12.77;50.00;99869.84;5129829;27;9872;-77
2023/01/13 02:00:04;;;;;;;;;91.75;76.00;;;;;12.78;50.61;99862.88;5115759;28;9780;-78
2023/01/13 02:02:40;;;;;;;;;86.75;68.75;;;;;12.68;49.76;99862.94;5115246;28;10671;-78
2023/01/13 02:05:09;;;;;;;;;93.00;81.25;;;;;12.68;50.04;99856.81;5116880;28;9963;-78
2023/01/13 02:07:40;;;;;;;;;90.75;72.25;;;;;12.76;50.08;99857.66;5107727;28;10012;-80
2023/01/13 02:10:12;;;;;;;;;89.25;70.00;;;;;12.66;49.64;99850.72;5109435;28;9710;-79
2023/01/13 02:12:44;;;;;;;;;89.75;73.00;;;;;12.61;49.81;99857.72;5107638;28;10619;-77
2023/01/13 02:15:17;;;;;;;;;86.67;69.33;;;;;12.42;49.98;99855.16;5107125;28;9802;-76
2023/01/13 02:18:19;;;;;;;;;90.75;73.50;;;;;12.44;49.25;99857.78;5107246;28;9443;-78
2023/01/13 02:21:12;;;;;;;;;85.75;68.50;;;;;12.47;50.82;99863.84;5106587;28;9693;-76
2023/01/13 02:27:40;;;;;;;;;83.00;66.00;;;;;12.34;50.82;99866.50;5035485;28;9469;-79
2023/01/13 02:33:19;;;;;;;;;87.00;69.00;;;;;12.35;51.39;99865.66;5068542;28;9394;-80
2023/01/13 02:35:52;;;;;;;;;80.00;65.33;;;;;12.33;50.64;99865.66;5021768;28;9341;-78
2023/01/13 02:38:27;;;;;;;;;82.33;64.33;;;;;12.44;51.40;99866.50;5028867;28;9536;-79
2023/01/13 02:44:05;;;;;;;;;82.00;65.67;;;;;12.45;51.12;99860.38;5029154;28;9285;-79
2023/01/13 02:44:07;;;;;;;;;80.67;63.33;;;;;12.48;50.83;99865.59;5045225;28;9001;-77
2023/01/13 02:46:44;;;;;;;;;81.67;64.00;;;;;12.59;50.50;99864.69;4994698;28;9178;-77
2023/01/13 02:49:20;;;;;;;;;81.67;64.00;;;;;12.54;50.56;99869.94;5025441;28;8948;-76
2023/01/13 02:51:51;;;;;;;;;79.25;62.25;;;;;12.44;50.30;99863.88;5026288;28;9188;-78
2023/01/13 02:54:24;;;;;;;;;82.33;65.00;;;;;12.47;50.94;99876.06;5045507;28;8938;-79
2023/01/13 02:56:55;;;;;;;;;77.67;62.00;;;;;12.48;50.98;99870.84;5045622;28;9489;-78
2023/01/13 02:59:26;;;;;;;;;78.00;60.33;;;;;12.52;50.71;99870.84;5045277;28;9031;-76
2023/01/13 03:01:57;;;;;;;;;80.33;63.33;;;;;12.57;51.26;99880.41;5063854;28;9201;-80
2023/01/13 03:04:50;;;;;;;;;80.67;64.67;;;;;12.79;50.56;99865.47;5029110;28;9231;-77
2023/01/13 03:07:54;;;;;;;;;78.50;64.00;;;;;12.78;50.84;99871.59;5083246;28;9142;-80
2023/01/13 03:10:37;;;;;;;;;81.67;62.67;;;;;12.76;50.61;99875.09;5024064;28;9113;-76
2023/01/13 03:13:17;;;;;;;;;78.00;62.00;;;;;12.76;50.77;99873.38;5008878;28;9124;-77
2023/01/13 03:16:00;;;;;;;;;79.00;64.00;;;;;12.82;50.68;99872.47;5009194;28;8930;-79
2023/01/13 03:18:40;;;;;;;;;76.00;60.00;;;;;12.81;49.52;99868.97;5027824;28;8974;-77
2023/01/13 03:21:19;;;;;;;;;69.00;56.33;;;;;12.83;50.30;99869.81;4979684;28;9004;-78
2023/01/13 03:23:52;;;;;;;;;75.00;61.00;;;;;12.74;49.99;99875.13;4995006;28;9154;-79
2023/01/13 03:26:30;;;;;;;;;83.67;64.00;;;;;12.80;50.15;99869.00;5028128;28;9104;-78
2023/01/13 03:29:06;;;;;;;;;74.33;59.67;;;;;12.78;50.54;99870.72;5031349;28;9100;-77
2023/01/13 03:31:43;;;;;;;;;78.33;61.00;;;;;12.71;50.06;99866.41;5029464;28;9109;-80
2023/01/13 03:34:17;;;;;;;;;73.33;59.33;;;;;12.72;50.99;99863.78;5029250;28;9131;-78
2023/01/13 03:36:50;;;;;;;;;72.67;58.67;;;;;12.74;51.12;99854.19;5031283;28;8938;-77
2023/01/13 03:39:27;;;;;;;;;70.50;58.00;;;;;12.76;50.56;99843.69;5033013;28;9641;-80
2023/01/13 03:42:00;;;;;;;;;72.25;56.25;;;;;12.79;50.48;99849.78;5040962;28;8838;-76
2023/01/13 03:44:32;;;;;;;;;72.50;57.25;;;;;12.72;49.97;99848.09;5016366;28;8876;-78
2023/01/13 03:47:10;;;;;;;;;69.00;57.50;;;;;12.59;50.37;99849.00;5016601;28;8928;-76
2023/01/13 03:49:47;;;;;;;;;68.75;56.25;;;;;12.62;50.00;99851.59;5090418;28;8944;-80
2023/01/13 03:52:23;;;;;;;;;69.00;56.75;;;;;12.60;50.87;99848.13;5099542;28;8857;-77
2023/01/13 03:54:55;;;;;;;;;66.50;52.75;;;;;12.48;50.09;99847.28;5110020;28;8841;-77
2023/01/13 03:57:29;;;;;;;;;66.75;54.25;;;;;12.45;50.02;99838.59;5111267;28;8883;-76
2023/01/13 04:00:02;;;;;;;;;67.00;55.25;;;;;12.39;50.56;99833.38;5109994;28;10301;-77
2023/01/13 04:02:53;;;;;;;;;73.25;56.25;;;;;12.55;50.49;99824.63;5112547;28;8857;-78
2023/01/13 04:05:25;;;;;;;;;64.50;53.25;;;;;12.37;51.08;99832.53;5064783;28;8841;-78
2023/01/13 04:08:01;;;;;;;;;65.50;53.00;;;;;12.40;51.49;99836.00;5100461;28;8856;-75
2023/01/13 04:10:35;;;;;;;;;65.25;52.00;;;;;12.40;51.74;99830.78;5131437;27;8861;-76
2023/01/13 04:13:08;;;;;;;;;67.00;53.50;;;;;12.47;50.96;99840.31;5114107;28;8865;-75
2023/01/13 04:15:39;;;;;;;;;69.75;55.25;;;;;12.37;51.59;99838.63;5111935;28;8857;-80
2023/01/13 04:18:14;;;;;;;;;69.00;56.00;;;;;12.41;51.80;99829.88;5089290;28;8930;-76
2023/01/13 04:20:47;;;;;;;;;68.75;55.75;;;;;12.38;51.64;99829.91;5089182;28;8990;-76
2023/01/13 04:23:17;;;;;;;;;70.25;55.25;;;;;12.29;51.70;99828.19;5089364;28;8899;-75
2023/01/13 04:25:46;;;;;;;;;64.50;52.75;;;;;12.26;51.17;99829.94;5092440;28;8864;-77
2023/01/13 04:28:16;;;;;;;;;69.25;55.25;;;;;12.25;52.00;99828.22;5109259;28;8845;-78
2023/01/13 04:30:46;;;;;;;;;66.50;53.25;;;;;12.29;51.36;99822.09;5116274;27;8929;-77
2023/01/13 04:33:16;;;;;;;;;68.00;55.25;;;;;12.21;51.59;99827.34;5110003;27;8876;-79
2023/01/13 04:35:47;;;;;;;;;67.00;54.50;;;;;12.22;51.89;99825.59;5130430;27;8830;-79
2023/01/13 04:38:19;;;;;;;;;67.25;55.25;;;;;12.29;51.35;99828.19;5130142;27;8881;-80
2023/01/13 04:40:48;;;;;;;;;71.25;56.50;;;;;12.17;51.53;99819.50;5111797;27;8875;-79
2023/01/13 04:43:17;;;;;;;;;67.75;54.50;;;;;12.01;51.07;99814.31;5077957;27;10073;-77
2023/01/13 04:45:46;;;;;;;;;66.75;52.25;;;;;12.13;51.60;99818.63;5129151;27;9000;-79
2023/01/13 04:48:15;;;;;;;;;75.00;60.25;;;;;12.00;51.38;99814.31;5112239;27;8829;-77
2023/01/13 04:50:43;;;;;;;;;80.00;64.00;;;;;12.12;51.95;99821.25;5094828;27;8837;-79
2023/01/13 04:53:14;;;;;;;;;81.00;64.33;;;;;12.15;51.77;99811.66;5076013;28;9427;-81
2023/01/13 04:55:43;;;;;;;;;74.50;56.25;;;;;12.20;52.31;99809.91;5092458;27;9238;-81
2023/01/13 04:58:12;;;;;;;;;71.00;56.75;;;;;12.29;52.26;99814.25;5093763;27;8872;-79
2023/01/13 05:00:41;;;;;;;;;71.00;58.75;;;;;12.33;52.26;99808.13;5127920;27;8876;-76
2023/01/13 05:03:10;;;;;;;;;72.75;56.25;;;;;12.36;51.86;99813.34;5043928;27;8887;-79
2023/01/13 05:05:39;;;;;;;;;66.75;55.25;;;;;12.46;51.86;99812.44;5110460;27;8996;-78
2023/01/13 05:08:08;;;;;;;;;67.25;55.25;;;;;12.43;51.49;99817.66;5109174;27;8837;-78
2023/01/13 05:10:38;;;;;;;;;65.50;55.00;;;;;12.47;52.38;99823.75;5089942;28;8859;-78
2023/01/13 05:18:41;;;;;;;;;72.25;59.50;;;;;12.44;52.05;99826.41;5109970;28;8829;-77
2023/01/13 05:25:20;;;;;;;;;60.50;48.75;;;;;12.43;52.16;99822.91;5121312;27;8860;-80
2023/01/13 05:26:46;;;;;;;;;90.00;71.25;;;;;12.54;51.82;99833.31;5132829;27;9599;-77
2023/01/13 05:29:15;;;;;;;;;68.25;54.00;;;;;12.56;51.48;99826.34;5132211;27;9561;-77
2023/01/13 05:31:44;;;;;;;;;89.75;71.50;;;;;12.63;51.39;99812.34;5096231;27;8847;-80
2023/01/13 05:34:13;;;;;;;;;80.33;63.33;;;;;12.67;51.69;99815.84;5130697;27;10204;-77
2023/01/13 05:36:41;;;;;;;;;65.50;55.00;;;;;12.74;51.64;99814.94;5062862;27;9464;-79
2023/01/13 05:39:10;;;;;;;;;74.25;57.25;;;;;12.63;51.62;99814.97;5113633;27;8923;-79
2023/01/13 05:44:27;;;;;;;;;70.50;56.25;;;;;12.71;51.71;99822.78;5125266;27;8812;-77
2023/01/13 05:46:56;;;;;;;;;63.25;53.00;;;;;12.69;51.20;99829.78;5112710;27;8900;-76
2023/01/13 05:49:25;;;;;;;;;61.50;51.00;;;;;12.65;50.80;99831.53;5084120;28;8826;-79
2023/01/13 05:51:53;;;;;;;;;69.50;54.50;;;;;12.56;50.50;99836.81;5052418;28;8850;-80
2023/01/13 05:54:22;;;;;;;;;54.75;47.75;;;;;12.50;51.53;99842.06;5085248;28;8866;-78
2023/01/13 05:56:51;;;;;;;;;63.75;52.00;;;;;12.51;52.36;99840.31;5050255;28;8944;-79
2023/01/13 05:59:20;;;;;;;;;65.25;54.00;;;;;12.52;51.68;99837.69;5031402;28;8855;-80
2023/01/13 06:01:50;;;;;;;;;64.25;52.50;;;;;12.57;52.42;99841.16;5066892;28;8879;-79
2023/01/13 06:04:18;;;;;;;;;61.25;49.50;;;;;12.56;51.99;99849.03;5079262;28;8867;-78
2023/01/13 06:06:47;;;;;;;;;76.67;59.33;;;;;12.57;51.42;99848.13;5034670;28;10054;-79
2023/01/13 06:09:16;;;;;;;;;69.25;57.50;;;;;12.43;51.74;99854.28;5033613;28;8955;-77
2023/01/13 06:11:45;;;;;;;;;68.50;56.25;;;;;12.54;52.01;99859.47;5065775;28;8864;-80
2023/01/13 06:14:14;;;;;;;;;72.75;57.50;;;;;12.61;52.33;99858.59;5066585;28;8955;-77
2023/01/13 06:16:44;;;;;;;;;59.50;48.50;;;;;12.61;52.37;99863.81;5083462;28;8865;-78
2023/01/13 06:19:15;;;;;;;;;64.00;52.00;;;;;12.67;52.17;99858.56;5066822;28;8862;-78
2023/01/13 06:21:44;;;;;;;;;71.00;56.33;;;;;12.73;52.84;99857.66;5107006;27;8899;-80
2023/01/13 06:24:13;;;;;;;;;80.33;63.00;;;;;12.74;51.69;99856.81;5108829;27;8959;-78
2023/01/13 06:26:41;;;;;;;;;78.00;62.67;;;;;12.78;51.33;99857.63;5057970;27;9289;-80
2023/01/13 06:29:13;;;;;;;;;75.33;60.67;;;;;12.81;51.33;99857.63;5103850;27;9333;-78
2023/01/13 06:31:43;;;;;;;;;73.33;58.67;;;;;12.79;51.54;99862.88;5089764;28;9202;-81
2023/01/13 06:34:13;;;;;;;;;75.67;60.33;;;;;12.76;51.37;99860.28;5087969;27;9140;-77
2023/01/13 06:36:48;;;;;;;;;74.67;60.00;;;;;12.55;51.72;99860.34;5088515;27;9221;-77
2023/01/13 06:39:22;;;;;;;;;73.25;59.75;;;;;12.59;51.99;99857.72;5101630;27;8922;-78
2023/01/13 06:44:40;;;;;;;;;63.25;51.00;;;;;12.67;52.15;99866.41;5087257;27;9045;-80
2023/01/13 06:47:09;;;;;;;;;57.50;49.00;;;;;12.71;52.17;99867.28;5088539;27;8835;-79
2023/01/13 06:49:38;;;;;;;;;57.25;46.50;;;;;12.60;51.74;99866.44;5104501;27;8852;-80
2023/01/13 06:52:08;;;;;;;;;56.00;46.75;;;;;12.62;51.58;99864.69;5087152;28;8837;-79
2023/01/13 06:54:37;;;;;;;;;52.00;44.75;;;;;12.58;51.88;99863.81;5105384;28;8853;-78
2023/01/13 06:57:06;;;;;;;;;58.75;49.25;;;;;12.62;52.12;99867.31;5108623;27;8866;-80
2023/01/13 06:59:35;;;;;;;;;59.00;49.00;;;;;12.72;51.52;99870.75;5129941;27;8839;-79
2023/01/13 07:02:04;;;;;;;;;65.50;55.00;;;;;12.69;51.68;99869.03;5133276;27;8880;-81
2023/01/13 07:04:33;;;;;;;;;65.25;53.00;;;;;12.77;51.81;99864.63;5129461;27;8882;-75
2023/01/13 07:07:01;;;;;;;;;66.50;54.00;;;;;12.83;51.85;99866.34;5124638;27;8841;-80
2023/01/13 07:09:32;;;;;;;;;67.00;53.50;;;;;12.89;51.61;99853.22;5128639;27;8855;-79
2023/01/13 07:12:00;;;;;;;;;47.25;42.00;;;;;12.81;51.60;99855.00;5106145;28;8852;-79
2023/01/13 07:17:23;;;;;;;;;47.50;40.00;;;;;12.81;52.08;99855.88;5120523;27;8862;-79
2023/01/13 07:19:53;;;;;;;;;45.75;41.25;;;;;12.72;51.73;99848.09;5117727;27;8836;-80
2023/01/13 07:22:23;;;;;;;;;43.00;40.00;;;;;12.80;52.71;99855.91;5132342;27;8874;-79
2023/01/13 07:24:53;;;;;;;;;28.25;28.25;;;;;12.81;51.50;99853.25;5108532;27;8970;-76
2023/01/13 07:27:22;;;;;;;;;39.25;33.25;;;;;12.75;51.65;99857.66;5110869;27;8838;-76
2023/01/13 07:29:50;;;;;;;;;32.50;28.00;;;;;12.71;52.13;99856.81;5127927;27;8839;-78
2023/01/13 07:32:19;;;;;;;;;34.75;33.00;;;;;12.67;52.12;99847.22;5108242;27;8873;-79
2023/01/13 07:34:48;;;;;;;;;24.60;21.40;;;;;12.56;52.10;99860.34;5129890;27;9641;-79
2023/01/13 07:37:17;;;;;;;;;22.40;22.40;;;;;12.60;51.32;99849.00;5110405;27;8837;-76
2023/01/13 07:39:46;;;;;;;;;29.20;26.20;;;;;12.58;51.67;99853.34;5109826;27;8841;-75
2023/01/13 07:44:59;;;;;;;;;28.80;24.60;;;;;12.56;51.52;99854.25;5047923;28;9028;-81
2023/01/13 07:47:27;;;;;;;;;19.60;15.20;;;;;12.49;51.75;99850.78;5028526;28;8848;-75
2023/01/13 07:49:56;;;;;;;;;24.60;20.00;;;;;12.36;51.73;99855.19;5028498;28;8856;-78
2023/01/13 07:52:25;;;;;;;;;25.60;22.80;;;;;12.38;51.62;99850.81;5011751;28;8957;-79
2023/01/13 07:54:54;;;;;;;;;28.20;26.40;;;;;12.31;52.57;99850.84;5031432;28;8904;-78
2023/01/13 07:57:24;;;;;;;;;22.60;21.80;;;;;12.27;51.52;99847.38;5019038;28;8845;-77
2023/01/13 07:59:52;;;;;;;;;30.40;22.20;;;;;12.27;51.57;99848.22;5024547;28;8852;-77
2023/01/13 08:02:21;;;;;;;;;20.80;18.00;;;;;12.11;52.02;99848.28;5011137;28;9002;-76
2023/01/13 08:04:50;;;;;;;;;33.40;29.20;;;;;12.07;52.12;99850.88;5034880;28;8850;-81
2023/01/13 08:07:19;;;;;;;;;23.80;21.60;;;;;12.01;52.05;99852.66;5014038;28;9009;-77
2023/01/13 08:09:48;;;;;;;;;22.60;21.80;;;;;12.09;52.26;99862.19;5027502;28;8856;-76
2023/01/13 08:15:08;;;;;;;;;24.80;22.40;;;;;12.06;52.77;99858.72;5026907;28;8868;-78
2023/01/13 08:17:37;;;;;;;;;30.20;27.20;;;;;11.77;53.01;99863.94;4955444;28;8931;-76
2023/01/13 08:20:07;;;;;;;;;31.00;29.60;;;;;11.74;54.10;99866.56;5047720;28;9214;-77
2023/01/13 08:22:37;;;;;;;;;30.60;28.60;;;;;11.85;53.78;99864.81;5095948;27;8843;-77
2023/01/13 08:25:06;;;;;;;;;33.80;30.00;;;;;12.03;53.30;99862.22;5113175;27;8842;-75
2023/01/13 08:27:35;;;;;;;;;26.00;24.80;;;;;12.06;52.64;99872.69;5078669;27;8859;-75
2023/01/13 08:30:07;;;;;;;;;29.60;28.40;;;;;12.02;52.90;99867.44;5147429;27;8827;-78
2023/01/13 08:32:35;;;;;;;;;32.40;29.40;;;;;12.08;53.22;99873.53;5081923;27;8823;-82
2023/01/13 08:35:05;;;;;;;;;28.40;25.00;;;;;11.96;53.03;99870.06;5133143;27;8862;-80
2023/01/13 08:37:34;;;;;;;;;29.60;25.20;;;;;12.00;52.66;99874.41;5133658;27;8823;-79
2023/01/13 08:40:03;;;;;;;;;29.25;27.25;;;;;11.80;53.28;99874.41;5139217;27;8868;-79
2023/01/13 08:42:32;;;;;;;;;33.20;29.20;;;;;11.88;53.38;99870.03;5112670;27;8853;-77
2023/01/13 08:45:01;;;;;;;;;29.00;27.20;;;;;11.92;53.11;99866.59;5112913;27;8876;-79
2023/01/13 08:47:31;;;;;;;;;33.00;32.25;;;;;12.05;52.92;99864.84;5111926;27;8879;-77
2023/01/13 08:50:00;;;;;;;;;31.00;29.25;;;;;12.07;52.59;99863.09;5095728;27;8867;-74
2023/01/13 08:52:29;;;;;;;;;27.00;26.00;;;;;12.03;52.01;99864.84;5131964;27;8845;-75
2023/01/13 08:54:58;;;;;;;;;42.75;35.75;;;;;12.00;52.31;99862.25;5124384;27;8853;-76
2023/01/13 08:57:27;;;;;;;;;39.25;37.50;;;;;11.92;53.01;99863.13;5109473;27;8833;-76
2023/01/13 08:59:56;;;;;;;;;35.75;33.00;;;;;11.89;52.91;99862.25;5132094;27;8847;-76
2023/01/13 09:02:26;;;;;;;;;29.75;27.75;;;;;11.67;53.87;99856.13;5114448;27;9598;-77
2023/01/13 09:04:56;;;;;;;;;37.25;37.00;;;;;11.67;54.30;99855.25;5111312;27;8885;-78
2023/01/13 09:07:25;;;;;;;;;39.00;37.00;;;;;11.70;54.66;99853.50;5129961;27;9652;-76
2023/01/13 09:09:55;;;;;;;;;32.00;30.25;;;;;11.54;54.21;99859.59;5130085;27;8821;-77
2023/01/13 09:15:11;;;;;;;;;39.00;36.75;;;;;11.77;54.14;99861.34;5133139;27;8872;-80
2023/01/13 09:17:40;;;;;;;;;33.50;32.75;;;;;11.76;53.51;99859.59;5130279;27;8854;-75
2023/01/13 09:20:12;;;;;;;;;32.25;27.50;;;;;11.68;54.17;99863.09;5141446;27;8886;-82
2023/01/13 09:22:41;;;;;;;;;35.80;33.80;;;;;11.61;54.07;99871.78;5104769;27;8834;-79
2023/01/13 09:25:11;;;;;;;;;31.25;30.50;;;;;11.88;53.42;99859.59;5125355;27;8911;-81
2023/01/13 09:27:39;;;;;;;;;41.75;37.75;;;;;11.90;52.99;99845.69;5124379;27;8824;-75
2023/01/13 09:30:10;;;;;;;;;36.50;36.00;;;;;12.02;53.44;99850.03;5111852;27;9729;-78
2023/01/13 09:32:38;;;;;;;;;41.00;35.75;;;;;11.92;53.73;99847.44;5110590;27;8841;-76
2023/01/13 09:35:08;;;;;;;;;33.50;27.25;;;;;11.82;52.92;99836.09;5058369;27;8882;-79
2023/01/13 09:37:39;;;;;;;;;32.75;29.25;;;;;11.59;53.43;99842.19;5128674;27;8851;-78
2023/01/13 09:40:30;;;;;;;;;46.25;40.25;;;;;11.96;53.41;99830.88;5101790;28;8846;-78
2023/01/13 09:46:00;;;;;;;;;40.50;37.25;;;;;12.05;53.07;99836.94;5045875;28;8888;-78
2023/01/13 09:48:32;;;;;;;;;38.75;31.50;;;;;12.15;52.91;99837.78;5045659;28;9734;-77
2023/01/13 09:51:13;;;;;;;;;40.50;36.75;;;;;12.24;52.67;99837.78;5045840;28;8900;-76
2023/01/13 09:53:50;;;;;;;;;42.75;39.25;;;;;12.18;52.74;99834.31;4997878;28;8977;-75
2023/01/13 09:56:19;;;;;;;;;41.75;36.25;;;;;12.10;52.27;99829.09;5045679;28;8911;-76
2023/01/13 09:58:48;;;;;;;;;43.50;37.25;;;;;12.27;52.39;99827.31;5029213;28;8871;-81
2023/01/13 10:01:28;;;;;;;;;54.25;39.50;;;;;12.31;51.63;99829.94;5045921;28;8867;-73
2023/01/13 10:04:02;;;;;;;;;45.25;40.00;;;;;12.41;51.71;99821.16;5012379;28;8885;-77
2023/01/13 10:06:37;;;;;;;;;53.50;43.00;;;;;12.49;51.90;99811.53;5028960;28;8865;-78
2023/01/13 10:09:06;;;;;;;;;44.25;38.50;;;;;12.55;51.47;99801.06;5045540;28;8938;-79
2023/01/13 10:14:34;;;;;;;;;49.00;39.00;;;;;12.56;51.68;99796.69;5027570;28;8869;-78
2023/01/13 10:17:12;;;;;;;;;49.75;43.25;;;;;12.67;50.87;99801.00;5046921;28;8853;-77
2023/01/13 10:19:44;;;;;;;;;48.25;40.25;;;;;12.59;51.15;99797.56;5085330;28;8852;-77
2023/01/13 10:22:34;;;;;;;;;38.00;36.75;;;;;12.70;50.72;99789.63;5055457;27;8874;-77
2023/01/13 10:25:17;;;;;;;;;54.00;42.75;;;;;12.66;51.14;99793.16;5141156;27;8867;-78
2023/01/13 10:27:48;;;;;;;;;52.25;42.50;;;;;12.69;51.71;99787.91;5111324;27;8849;-78
2023/01/13 10:30:21;;;;;;;;;50.25;42.00;;;;;12.82;51.28;99783.47;5057854;27;8829;-80
2023/01/13 10:32:54;;;;;;;;;54.00;43.00;;;;;12.97;50.62;99772.91;5106274;28;8837;-77
2023/01/13 10:35:53;;;;;;;;;48.00;42.50;;;;;13.19;50.33;99773.63;5123332;27;8876;-79
2023/01/13 10:38:26;;;;;;;;;45.25;38.75;;;;;13.12;50.46;99765.81;5118555;28;8821;-79
2023/01/13 10:40:56;;;;;;;;;48.50;41.00;;;;;13.24;49.57;99769.22;5109121;28;8873;-76
2023/01/13 10:43:26;;;;;;;;;43.75;39.50;;;;;13.31;50.48;99763.94;5123751;27;8842;-76
2023/01/13 10:46:02;;;;;;;;;49.25;40.75;;;;;13.42;49.93;99757.75;5112841;28;8911;-77
2023/01/13 10:48:39;;;;;;;;;50.75;40.50;;;;;13.47;48.90;99757.72;5107078;28;8925;-79
2023/01/13 10:51:19;;;;;;;;;47.75;37.75;;;;;13.50;49.18;99756.84;5108117;28;8869;-80
2023/01/13 10:53:54;;;;;;;;;47.75;40.00;;;;;13.47;48.76;99751.63;5118260;28;8861;-79
2023/01/13 10:56:26;;;;;;;;;46.25;37.00;;;;;13.47;50.31;99749.84;5110155;28;8880;-77
2023/01/13 10:59:12;;;;;;;;;42.50;38.00;;;;;13.56;48.58;99741.06;5107770;27;8853;-78
2023/01/13 11:01:43;;;;;;;;;48.75;42.50;;;;;13.56;48.61;99741.06;5107981;28;8954;-76
2023/01/13 11:04:28;;;;;;;;;46.25;40.50;;;;;13.89;48.40;99733.72;5106430;28;8880;-77
2023/01/13 11:06:57;;;;;;;;;48.50;40.00;;;;;13.95;49.00;99742.41;5071953;28;8877;-77
2023/01/13 11:09:30;;;;;;;;;47.25;41.00;;;;;14.07;48.11;99732.66;5109042;28;8867;-75
2023/01/13 11:12:01;;;;;;;;;42.75;38.25;;;;;13.97;47.86;99726.63;5089448;28;8884;-79
2023/01/13 11:14:41;;;;;;;;;42.25;37.25;;;;;14.15;47.34;99725.56;5126516;27;9456;-79
2023/01/13 11:17:21;;;;;;;;;47.00;39.25;;;;;14.05;47.82;99709.06;5128493;27;8866;-78
2023/01/13 11:19:57;;;;;;;;;37.50;35.75;;;;;14.26;48.46;99707.91;5110457;27;8870;-77
2023/01/13 11:22:32;;;;;;;;;46.00;40.00;;;;;14.36;46.84;99713.91;5125927;27;8862;-79
2023/01/13 11:25:04;;;;;;;;;46.50;39.25;;;;;14.24;47.53;99710.56;5108481;28;8853;-77
2023/01/13 11:27:42;;;;;;;;;47.50;38.75;;;;;14.39;46.63;99712.13;5116022;27;8903;-76
2023/01/13 11:30:22;;;;;;;;;46.00;40.00;;;;;14.56;47.02;99709.25;5133092;27;9696;-76
2023/01/13 11:33:25;;;;;;;;;43.75;37.75;;;;;14.40;47.37;99703.38;5137557;27;8947;-76
2023/01/13 11:36:03;;;;;;;;;45.75;38.25;;;;;14.58;47.31;99698.78;5133175;27;8865;-75
2023/01/13 11:38:37;;;;;;;;;49.00;42.50;;;;;14.52;46.97;99696.22;5114139;28;8864;-76
2023/01/13 11:41:17;;;;;;;;;45.00;40.75;;;;;14.45;46.84;99697.19;5090104;28;8872;-80
2023/01/13 11:43:54;;;;;;;;;46.00;39.25;;;;;14.52;46.68;99690.97;5108426;27;8834;-76
2023/01/13 11:46:27;;;;;;;;;50.75;41.25;;;;;14.58;46.68;99688.28;5123184;27;8909;-79
2023/01/13 11:48:56;;;;;;;;;53.25;45.50;;;;;14.56;46.65;99679.53;5112117;28;8909;-82
2023/01/13 11:51:34;;;;;;;;;54.00;44.50;;;;;14.79;46.64;99677.44;5111867;28;8845;-77
2023/01/13 11:54:45;;;;;;;;;53.25;43.50;;;;;14.86;46.42;99670.34;5111597;28;8860;-78
2023/01/13 11:57:39;;;;;;;;;48.50;39.50;;;;;14.80;46.01;99667.81;5031001;28;8867;-81
2023/01/13 12:00:26;;;;;;;;;57.00;44.50;;;;;14.81;45.39;99667.78;5048032;28;8895;-77
2023/01/13 12:03:10;;;;;;;;;45.00;38.00;;;;;14.70;47.20;99667.09;5059896;28;8834;-77
2023/01/13 12:05:43;;;;;;;;;54.75;45.00;;;;;14.43;47.09;99666.56;5051158;28;8883;-77
2023/01/13 12:08:18;;;;;;;;;56.00;45.25;;;;;14.65;46.87;99668.94;5067947;28;8849;-77
2023/01/13 12:11:01;;;;;;;;;50.00;41.25;;;;;14.56;46.56;99669.91;5034592;28;8841;-75
2023/01/13 12:13:44;;;;;;;;;48.50;42.50;;;;;14.68;46.62;99665.38;5030777;28;8982;-76
2023/01/13 12:16:19;;;;;;;;;45.00;39.00;;;;;14.53;46.67;99658.56;5035720;28;8933;-76
2023/01/13 12:19:06;;;;;;;;;52.00;42.00;;;;;14.65;46.42;99661.06;5065162;28;8849;-78
2023/01/13 12:21:38;;;;;;;;;55.00;44.50;;;;;14.38;46.74;99659.66;5043391;28;8854;-81
2023/01/13 12:24:17;;;;;;;;;54.25;43.00;;;;;14.43;46.69;99653.47;5067289;28;9602;-77
2023/01/13 12:26:54;;;;;;;;;49.75;42.75;;;;;14.46;46.47;99652.56;5033029;28;8968;-77
2023/01/13 12:29:30;;;;;;;;;43.00;39.00;;;;;14.52;47.20;99657.72;4986273;28;8878;-74